createdAt,value
2024-05-09T00:00:58.843Z,58.40
2024-05-09T00:02:15.689Z,58.98
2024-05-09T00:03:17.327Z,59.41
2024-05-09T00:04:19.171Z,59.68
2024-05-09T00:05:20.966Z,60.07
2024-05-09T00:06:22.534Z,60.36
2024-05-09T00:07:24.349Z,60.64
2024-05-09T00:08:26.009Z,60.91
2024-05-09T00:09:27.587Z,61.29
2024-05-09T00:10:35.657Z,61.47
2024-05-09T00:11:41.951Z,61.79
2024-05-09T00:12:43.506Z,61.94
2024-05-09T00:13:45.700Z,62.06
2024-05-09T00:14:47.293Z,62.25
2024-05-09T00:15:48.830Z,62.57
2024-05-09T00:16:50.417Z,63.25
2024-05-09T00:17:53.090Z,63.15
2024-05-09T00:18:54.725Z,61.84
2024-05-09T00:19:56.288Z,59.93
2024-05-09T00:20:58.691Z,57.60
2024-05-09T00:22:00.216Z,55.47
2024-05-09T00:23:01.956Z,54.85
2024-05-09T00:24:03.596Z,54.88
2024-05-09T00:25:05.369Z,55.26
2024-05-09T00:26:06.929Z,55.85
2024-05-09T00:27:10.092Z,56.43
2024-05-09T00:28:13.352Z,57.00
2024-05-09T00:29:15.215Z,57.48
2024-05-09T00:30:24.354Z,57.93
2024-05-09T00:31:35.593Z,58.43
2024-05-09T00:32:37.199Z,58.86
2024-05-09T00:33:39.057Z,59.15
2024-05-09T00:34:40.854Z,59.48
2024-05-09T00:35:42.563Z,59.82
2024-05-09T00:36:44.106Z,60.24
2024-05-09T00:37:45.869Z,60.54
2024-05-09T00:38:47.523Z,60.75
2024-05-09T00:39:49.070Z,61.00
2024-05-09T00:40:50.643Z,61.35
2024-05-09T00:41:52.353Z,61.53
2024-05-09T00:42:53.881Z,61.77
2024-05-09T00:43:55.559Z,62.10
2024-05-09T00:44:57.122Z,62.27
2024-05-09T00:46:01.220Z,62.42
2024-05-09T00:47:03.476Z,63.04
2024-05-09T00:48:08.661Z,63.64
2024-05-09T00:49:12.397Z,62.70
2024-05-09T00:50:19.324Z,60.87
2024-05-09T00:51:24.739Z,58.35
2024-05-09T00:52:27.435Z,56.10
2024-05-09T00:53:29.969Z,55.11
2024-05-09T00:54:32.619Z,55.13
2024-05-09T00:55:36.917Z,55.55
2024-05-09T00:56:40.780Z,56.07
2024-05-09T00:57:43.929Z,56.65
2024-05-09T00:58:46.727Z,57.26
2024-05-09T00:59:48.380Z,57.83
2024-05-09T01:00:50.315Z,58.27
2024-05-09T01:01:52.846Z,58.78
2024-05-09T01:02:54.543Z,59.29
2024-05-09T01:03:56.403Z,59.70
2024-05-09T01:04:58.380Z,60.28
2024-05-09T01:06:00.018Z,60.58
2024-05-09T01:07:01.623Z,60.96
2024-05-09T01:08:03.983Z,61.26
2024-05-09T01:09:05.821Z,61.71
2024-05-09T01:10:13.928Z,61.95
2024-05-09T01:11:20.215Z,62.36
2024-05-09T01:12:23.845Z,62.80
2024-05-09T01:13:25.675Z,63.42
2024-05-09T01:14:27.351Z,63.02
2024-05-09T01:15:28.937Z,61.61
2024-05-09T01:16:31.516Z,59.72
2024-05-09T01:17:33.689Z,57.49
2024-05-09T01:18:35.727Z,55.77
2024-05-09T01:19:37.553Z,55.37
2024-05-09T01:20:42.890Z,55.63
2024-05-09T01:21:46.284Z,56.27
2024-05-09T01:22:48.304Z,57.12
2024-05-09T01:23:49.889Z,57.87
2024-05-09T01:24:51.976Z,58.46
2024-05-09T01:25:53.678Z,59.26
2024-05-09T01:26:55.401Z,59.99
2024-05-09T01:27:56.972Z,60.40
2024-05-09T01:28:58.545Z,61.18
2024-05-09T01:30:00.149Z,61.49
2024-05-09T01:31:01.801Z,61.98
2024-05-09T01:32:04.162Z,62.58
2024-05-09T01:33:07.912Z,63.47
2024-05-09T01:34:11.346Z,63.65
2024-05-09T01:35:13.026Z,62.63
2024-05-09T01:36:14.585Z,60.76
2024-05-09T01:37:16.159Z,58.63
2024-05-09T01:38:19.006Z,56.36
2024-05-09T01:39:20.497Z,55.26
2024-05-09T01:40:28.689Z,55.39
2024-05-09T01:41:41.615Z,56.17
2024-05-09T01:42:43.635Z,56.89
2024-05-09T01:43:45.187Z,57.64
2024-05-09T01:44:46.878Z,58.30
2024-05-09T01:45:48.451Z,59.09
2024-05-09T01:46:50.062Z,59.72
2024-05-09T01:47:51.932Z,60.25
2024-05-09T01:48:53.620Z,60.74
2024-05-09T01:49:55.238Z,61.30
2024-05-09T01:50:58.848Z,61.81
2024-05-09T01:52:00.460Z,62.24
2024-05-09T01:53:02.224Z,62.93
2024-05-09T01:54:03.754Z,63.77
2024-05-09T01:55:08.477Z,63.13
2024-05-09T01:56:10.046Z,61.48
2024-05-09T01:57:11.719Z,59.60
2024-05-09T01:58:13.421Z,57.50
2024-05-09T01:59:15.105Z,55.93
2024-05-09T02:00:22.414Z,55.66
2024-05-09T02:01:55.535Z,56.30
2024-05-09T02:02:57.260Z,57.36
2024-05-09T02:03:59.132Z,58.11
2024-05-09T02:05:00.968Z,58.89
2024-05-09T02:06:02.967Z,59.68
2024-05-09T02:07:04.820Z,60.26
2024-05-09T02:08:06.670Z,61.05
2024-05-09T02:09:08.981Z,61.68
2024-05-09T02:10:16.453Z,62.20
2024-05-09T02:11:22.118Z,63.33
2024-05-09T02:12:23.915Z,63.96
2024-05-09T02:13:25.731Z,63.52
2024-05-09T02:14:27.481Z,61.91
2024-05-09T02:15:29.115Z,60.03
2024-05-09T02:16:30.610Z,58.01
2024-05-09T02:17:32.509Z,56.20
2024-05-09T02:18:34.371Z,55.77
2024-05-09T02:19:35.955Z,56.08
2024-05-09T02:20:41.436Z,56.75
2024-05-09T02:21:43.922Z,57.69
2024-05-09T02:22:45.503Z,58.47
2024-05-09T02:23:47.165Z,59.37
2024-05-09T02:24:48.684Z,60.31
2024-05-09T02:25:50.257Z,60.74
2024-05-09T02:26:52.120Z,61.48
2024-05-09T02:27:53.627Z,62.41
2024-05-09T02:28:55.314Z,63.50
2024-05-09T02:29:57.168Z,63.95
2024-05-09T02:30:58.721Z,63.43
2024-05-09T02:32:00.367Z,61.89
2024-05-09T02:33:02.235Z,60.07
2024-05-09T02:34:04.162Z,58.06
2024-05-09T02:35:06.051Z,56.28
2024-05-09T02:36:08.472Z,55.83
2024-05-09T02:37:10.032Z,56.23
2024-05-09T02:38:11.893Z,56.95
2024-05-09T02:39:13.876Z,57.88
2024-05-09T02:40:21.610Z,58.68
2024-05-09T02:41:27.538Z,59.70
2024-05-09T02:42:29.359Z,60.45
2024-05-09T02:43:30.935Z,61.02
2024-05-09T02:44:32.908Z,61.63
2024-05-09T02:45:34.417Z,62.16
2024-05-09T02:46:35.931Z,62.89
2024-05-09T02:47:38.086Z,63.93
2024-05-09T02:48:39.847Z,63.73
2024-05-09T02:49:41.529Z,62.33
2024-05-09T02:50:45.799Z,60.47
2024-05-09T02:51:47.515Z,58.31
2024-05-09T02:52:49.092Z,56.39
2024-05-09T02:53:50.720Z,55.53
2024-05-09T02:54:52.701Z,55.75
2024-05-09T02:55:54.232Z,56.43
2024-05-09T02:56:55.818Z,57.17
2024-05-09T02:57:57.780Z,57.96
2024-05-09T02:58:59.321Z,58.67
2024-05-09T03:00:01.072Z,59.34
2024-05-09T03:01:02.878Z,59.90
2024-05-09T03:02:04.536Z,60.58
2024-05-09T03:03:07.043Z,61.04
2024-05-09T03:04:09.164Z,61.67
2024-05-09T03:05:10.966Z,62.24
2024-05-09T03:06:12.518Z,62.85
2024-05-09T03:07:14.082Z,63.84
2024-05-09T03:08:15.808Z,63.55
2024-05-09T03:09:17.762Z,62.15
2024-05-09T03:10:25.398Z,60.42
2024-05-09T03:11:30.466Z,58.11
2024-05-09T03:12:32.041Z,56.28
2024-05-09T03:13:33.753Z,55.75
2024-05-09T03:14:35.335Z,56.11
2024-05-09T03:15:37.544Z,56.88
2024-05-09T03:16:39.073Z,57.72
2024-05-09T03:17:40.745Z,58.52
2024-05-09T03:18:42.516Z,59.30
2024-05-09T03:19:44.260Z,60.05
2024-05-09T03:20:45.999Z,60.74
2024-05-09T03:21:47.524Z,61.46
2024-05-09T03:22:49.039Z,61.91
2024-05-09T03:23:50.588Z,62.44
2024-05-09T03:24:52.416Z,63.32
2024-05-09T03:25:54.056Z,63.93
2024-05-09T03:26:56.224Z,63.08
2024-05-09T03:27:57.992Z,61.42
2024-05-09T03:28:59.531Z,59.52
2024-05-09T03:30:01.094Z,57.28
2024-05-09T03:31:02.801Z,55.73
2024-05-09T03:32:04.782Z,55.57
2024-05-09T03:33:09.589Z,56.11
2024-05-09T03:34:11.442Z,56.77
2024-05-09T03:35:13.018Z,57.47
2024-05-09T03:36:14.566Z,58.18
2024-05-09T03:37:16.087Z,58.95
2024-05-09T03:38:17.793Z,59.65
2024-05-09T03:39:19.542Z,60.17
2024-05-09T03:40:26.135Z,60.78
2024-05-09T03:41:28.751Z,61.41
2024-05-09T03:42:30.391Z,62.04
2024-05-09T03:43:31.983Z,62.49
2024-05-09T03:44:33.722Z,63.52
2024-05-09T03:45:35.281Z,64.04
2024-05-09T03:46:40.509Z,63.13
2024-05-09T03:47:42.435Z,61.35
2024-05-09T03:48:44.350Z,59.48
2024-05-09T03:49:46.196Z,57.30
2024-05-09T03:50:48.428Z,55.90
2024-05-09T03:51:50.217Z,55.71
2024-05-09T03:52:51.930Z,56.13
2024-05-09T03:53:53.566Z,56.89
2024-05-09T03:54:55.122Z,57.82
2024-05-09T03:55:56.846Z,58.50
2024-05-09T03:56:58.511Z,59.31
2024-05-09T03:58:00.160Z,60.03
2024-05-09T03:59:01.857Z,60.65
2024-05-09T04:00:05.548Z,61.17
2024-05-09T04:01:16.537Z,61.76
2024-05-09T04:02:18.250Z,62.36
2024-05-09T04:03:20.047Z,63.36
2024-05-09T04:04:21.967Z,63.79
2024-05-09T04:05:25.076Z,63.06
2024-05-09T04:06:27.590Z,61.44
2024-05-09T04:07:29.202Z,59.51
2024-05-09T04:08:31.162Z,57.38
2024-05-09T04:09:32.823Z,56.11
2024-05-09T04:10:35.374Z,55.93
2024-05-09T04:11:37.432Z,56.23
2024-05-09T04:12:39.219Z,57.02
2024-05-09T04:13:41.198Z,58.01
2024-05-09T04:14:42.805Z,58.55
2024-05-09T04:15:44.427Z,59.17
2024-05-09T04:16:45.985Z,59.89
2024-05-09T04:17:50.672Z,60.29
2024-05-09T04:18:52.694Z,60.89
2024-05-09T04:19:54.631Z,61.51
2024-05-09T04:20:56.215Z,61.67
2024-05-09T04:21:57.799Z,62.01
2024-05-09T04:22:59.367Z,62.58
2024-05-09T04:24:00.928Z,63.35
2024-05-09T04:25:02.552Z,63.27
2024-05-09T04:26:04.399Z,61.95
2024-05-09T04:27:06.029Z,59.99
2024-05-09T04:28:07.719Z,57.50
2024-05-09T04:29:09.479Z,55.56
2024-05-09T04:30:18.570Z,54.69
2024-05-09T04:31:23.452Z,54.74
2024-05-09T04:32:25.381Z,55.23
2024-05-09T04:33:28.648Z,55.66
2024-05-09T04:34:30.470Z,56.32
2024-05-09T04:35:34.421Z,56.91
2024-05-09T04:36:36.211Z,57.14
2024-05-09T04:37:37.966Z,57.40
2024-05-09T04:38:39.730Z,57.67
2024-05-09T04:39:41.350Z,58.05
2024-05-09T04:40:43.524Z,58.48
2024-05-09T04:41:45.257Z,58.43
2024-05-09T04:42:46.780Z,58.61
2024-05-09T04:43:50.141Z,58.87
2024-05-09T04:44:52.974Z,59.06
2024-05-09T04:45:55.784Z,59.32
2024-05-09T04:46:57.316Z,59.63
2024-05-09T04:47:59.083Z,59.71
2024-05-09T04:49:01.071Z,59.82
2024-05-09T04:50:03.590Z,59.84
2024-05-09T04:51:06.243Z,59.78
2024-05-09T04:52:07.752Z,60.09
2024-05-09T04:53:14.812Z,60.46
2024-05-09T04:54:26.347Z,60.65
2024-05-09T04:55:38.649Z,60.77
2024-05-09T04:56:40.289Z,60.51
2024-05-09T04:57:41.855Z,60.68
2024-05-09T04:58:43.364Z,60.67
2024-05-09T04:59:44.899Z,60.71
2024-05-09T05:00:46.517Z,60.64
2024-05-09T05:01:48.213Z,60.73
2024-05-09T05:02:49.938Z,60.89
2024-05-09T05:03:51.922Z,60.62
2024-05-09T05:04:54.073Z,60.42
2024-05-09T05:05:55.916Z,60.06
2024-05-09T05:06:59.736Z,60.37
2024-05-09T05:08:03.830Z,60.46
2024-05-09T05:09:05.649Z,60.11
2024-05-09T05:10:09.356Z,60.30
2024-05-09T05:11:13.776Z,60.71
2024-05-09T05:12:35.830Z,60.80
2024-05-09T05:13:40.110Z,60.59
2024-05-09T05:14:43.090Z,60.55
2024-05-09T05:15:47.577Z,60.66
2024-05-09T05:16:49.262Z,60.41
2024-05-09T05:17:50.965Z,59.86
2024-05-09T05:18:52.939Z,59.67
2024-05-09T05:19:56.240Z,59.70
2024-05-09T05:20:58.526Z,59.46
2024-05-09T05:22:00.161Z,59.39
2024-05-09T05:23:01.817Z,58.84
2024-05-09T05:24:03.689Z,58.69
2024-05-09T05:25:05.621Z,58.73
2024-05-09T05:26:07.159Z,58.80
2024-05-09T05:27:08.685Z,58.75
2024-05-09T05:28:10.373Z,59.00
2024-05-09T05:29:11.999Z,58.55
2024-05-09T05:30:21.482Z,58.53
2024-05-09T05:31:30.386Z,58.56
2024-05-09T05:32:32.140Z,58.35
2024-05-09T05:33:33.780Z,58.53
2024-05-09T05:34:35.371Z,58.72
2024-05-09T05:35:37.612Z,58.85
2024-05-09T05:36:39.141Z,58.61
2024-05-09T05:37:41.157Z,58.45
2024-05-09T05:38:43.012Z,58.83
2024-05-09T05:39:44.599Z,58.37
2024-05-09T05:40:48.691Z,58.04
2024-05-09T05:41:50.258Z,57.71
2024-05-09T05:42:51.819Z,57.48
2024-05-09T05:43:53.748Z,57.74
2024-05-09T05:44:55.268Z,57.78
2024-05-09T05:45:56.825Z,57.79
2024-05-09T05:46:58.333Z,57.77
2024-05-09T05:48:03.655Z,57.56
2024-05-09T05:49:05.410Z,57.12
2024-05-09T05:50:17.790Z,57.27
2024-05-09T05:51:26.215Z,57.20
2024-05-09T05:52:27.824Z,56.71
2024-05-09T05:53:29.441Z,56.39
2024-05-09T05:54:31.083Z,56.90
2024-05-09T05:55:32.642Z,56.50
2024-05-09T05:56:34.215Z,56.29
2024-05-09T05:57:35.939Z,56.23
2024-05-09T05:58:37.897Z,56.29
2024-05-09T05:59:39.761Z,56.12
2024-05-09T06:00:42.318Z,55.95
2024-05-09T06:01:44.560Z,55.65
2024-05-09T06:02:48.427Z,54.84
2024-05-09T06:03:50.423Z,54.51
2024-05-09T06:04:52.454Z,54.54
2024-05-09T06:05:54.204Z,54.41
2024-05-09T06:06:56.006Z,54.63
2024-05-09T06:07:57.664Z,54.11
2024-05-09T06:08:59.378Z,53.69
2024-05-09T06:10:01.013Z,54.00
2024-05-09T06:11:02.772Z,54.32
2024-05-09T06:12:05.007Z,54.64
2024-05-09T06:13:13.428Z,54.66
2024-05-09T06:14:15.740Z,54.88
2024-05-09T06:15:17.735Z,54.64
2024-05-09T06:16:19.310Z,54.21
2024-05-09T06:17:21.100Z,53.85
2024-05-09T06:18:23.385Z,53.46
2024-05-09T06:19:25.258Z,52.85
2024-05-09T06:20:34.460Z,52.21
2024-05-09T06:21:38.955Z,52.57
2024-05-09T06:22:40.582Z,52.46
2024-05-09T06:23:46.156Z,51.69
2024-05-09T06:24:47.751Z,51.95
2024-05-09T06:25:49.420Z,51.93
2024-05-09T06:26:50.980Z,51.47
2024-05-09T06:27:52.994Z,51.47
2024-05-09T06:28:54.563Z,51.53
2024-05-09T06:29:56.141Z,50.88
2024-05-09T06:30:57.622Z,50.05
2024-05-09T06:32:00.362Z,50.37
2024-05-09T06:33:04.335Z,50.53
2024-05-09T06:34:06.203Z,50.58
2024-05-09T06:35:07.895Z,49.48
2024-05-09T06:36:09.410Z,49.63
2024-05-09T06:37:10.982Z,49.35
2024-05-09T06:38:16.191Z,49.00
2024-05-09T06:39:17.885Z,48.81
2024-05-09T06:40:36.218Z,49.41
2024-05-09T06:41:42.796Z,49.38
2024-05-09T06:42:44.470Z,49.29
2024-05-09T06:43:46.118Z,49.26
2024-05-09T06:44:47.638Z,49.48
2024-05-09T06:45:52.031Z,48.97
2024-05-09T06:46:55.776Z,47.58
2024-05-09T06:47:59.879Z,47.40
2024-05-09T06:49:07.436Z,47.55
2024-05-09T06:50:16.331Z,47.62
2024-05-09T06:51:24.520Z,46.99
2024-05-09T06:52:26.334Z,47.29
2024-05-09T06:53:27.955Z,46.24
2024-05-09T06:54:30.421Z,46.13
2024-05-09T06:55:32.078Z,46.37
2024-05-09T06:56:35.052Z,45.79
2024-05-09T06:57:38.334Z,46.67
2024-05-09T06:58:40.848Z,46.23
2024-05-09T06:59:42.589Z,46.16
2024-05-09T07:00:44.309Z,46.07
2024-05-09T07:01:45.978Z,45.91
2024-05-09T07:02:47.789Z,46.61
2024-05-09T07:03:49.606Z,46.67
2024-05-09T07:04:51.355Z,45.97
2024-05-09T07:05:53.201Z,45.91
2024-05-09T07:06:54.776Z,45.75
2024-05-09T07:07:56.275Z,45.54
2024-05-09T07:08:57.881Z,45.16
2024-05-09T07:09:59.793Z,44.88
2024-05-09T07:11:01.453Z,45.15
2024-05-09T07:12:03.559Z,45.42
2024-05-09T07:13:12.568Z,45.23
2024-05-09T07:14:14.272Z,45.00
2024-05-09T07:15:15.930Z,44.54
2024-05-09T07:16:17.452Z,44.06
2024-05-09T07:17:19.384Z,44.14
2024-05-09T07:18:21.186Z,44.04
2024-05-09T07:19:22.999Z,44.01
2024-05-09T07:20:32.439Z,43.00
2024-05-09T07:21:38.831Z,43.15
2024-05-09T07:22:40.309Z,42.84
2024-05-09T07:23:43.609Z,43.33
2024-05-09T07:24:46.011Z,43.11
2024-05-09T07:25:47.828Z,43.29
2024-05-09T07:26:49.512Z,42.72
2024-05-09T07:27:51.053Z,42.49
2024-05-09T07:28:52.807Z,42.63
2024-05-09T07:29:54.373Z,42.93
2024-05-09T07:30:55.943Z,42.77
2024-05-09T07:31:57.783Z,42.82
2024-05-09T07:32:59.449Z,43.34
2024-05-09T07:34:01.268Z,43.40
2024-05-09T07:35:03.069Z,43.14
2024-05-09T07:36:04.936Z,42.68
2024-05-09T07:37:11.724Z,42.97
2024-05-09T07:38:13.534Z,42.62
2024-05-09T07:39:15.124Z,43.01
2024-05-09T07:40:24.968Z,42.85
2024-05-09T07:41:36.744Z,42.85
2024-05-09T07:42:38.491Z,43.50
2024-05-09T07:43:39.970Z,43.17
2024-05-09T07:44:41.671Z,43.32
2024-05-09T07:45:51.886Z,43.04
2024-05-09T07:53:29.650Z,42.81
2024-05-09T07:53:48.322Z,42.26
2024-05-09T07:54:53.224Z,41.71
2024-05-09T07:55:55.880Z,41.26
2024-05-09T07:56:57.918Z,41.11
2024-05-09T07:57:59.549Z,41.44
2024-05-09T07:59:01.047Z,41.03
2024-05-09T08:00:03.326Z,40.83
2024-05-09T08:01:05.231Z,40.72
2024-05-09T08:02:08.871Z,40.59
2024-05-09T08:03:10.641Z,41.01
2024-05-09T08:04:12.322Z,40.88
2024-05-09T08:05:14.144Z,40.81
2024-05-09T08:06:15.810Z,40.78
2024-05-09T08:07:18.370Z,41.28
2024-05-09T08:08:19.921Z,41.54
2024-05-09T08:09:21.809Z,42.07
2024-05-09T08:10:28.459Z,41.70
2024-05-09T08:11:31.968Z,42.34
2024-05-09T08:12:33.705Z,42.04
2024-05-09T08:13:35.206Z,41.50
2024-05-09T08:14:36.756Z,40.65
2024-05-09T08:15:38.818Z,40.07
2024-05-09T08:16:40.393Z,40.11
2024-05-09T08:17:41.967Z,39.78
2024-05-09T08:18:43.610Z,39.88
2024-05-09T08:19:45.304Z,39.79
2024-05-09T08:20:49.000Z,39.59
2024-05-09T08:21:50.600Z,39.44
2024-05-09T08:22:52.208Z,39.20
2024-05-09T08:23:54.099Z,39.81
2024-05-09T08:24:55.771Z,40.38
2024-05-09T08:25:57.765Z,40.98
2024-05-09T08:26:59.253Z,40.62
2024-05-09T08:28:03.558Z,39.89
2024-05-09T08:29:05.083Z,39.75
2024-05-09T08:30:10.190Z,39.02
2024-05-09T08:31:14.276Z,39.16
2024-05-09T08:32:16.058Z,39.42
2024-05-09T08:33:18.653Z,39.05
2024-05-09T08:34:20.527Z,38.57
2024-05-09T08:35:22.173Z,37.99
2024-05-09T08:36:23.751Z,38.22
2024-05-09T08:37:29.443Z,38.33
2024-05-09T08:38:36.480Z,38.57
2024-05-09T08:39:38.193Z,38.25
2024-05-09T08:40:41.135Z,37.98
2024-05-09T08:41:49.079Z,38.13
2024-05-09T08:42:55.469Z,37.57
2024-05-09T08:43:57.193Z,38.06
2024-05-09T08:44:58.762Z,38.29
2024-05-09T08:46:02.459Z,37.68
2024-05-09T08:47:08.385Z,37.64
2024-05-09T08:48:12.293Z,37.61
2024-05-09T08:49:15.564Z,37.19
2024-05-09T08:50:28.392Z,38.06
2024-05-09T08:51:39.622Z,37.94
2024-05-09T08:52:41.528Z,37.70
2024-05-09T08:53:43.171Z,38.11
2024-05-09T08:54:45.083Z,38.37
2024-05-09T08:55:50.577Z,38.83
2024-05-09T08:56:52.541Z,38.45
2024-05-09T08:57:55.253Z,38.59
2024-05-09T08:59:01.050Z,38.28
2024-05-09T09:00:10.004Z,38.91
2024-05-09T09:01:17.368Z,38.93
2024-05-09T09:02:21.756Z,38.86
2024-05-09T09:03:27.075Z,38.81
2024-05-09T09:04:30.503Z,39.49
2024-05-09T09:05:37.709Z,39.11
2024-05-09T09:06:39.935Z,38.28
2024-05-09T09:07:47.552Z,38.39
2024-05-09T09:08:49.768Z,37.35
2024-05-09T09:09:51.919Z,37.20
2024-05-09T09:10:57.455Z,37.60
2024-05-09T09:11:59.625Z,38.61
2024-05-09T09:13:03.307Z,38.16
2024-05-09T09:14:04.818Z,37.30
2024-05-09T09:15:06.332Z,36.63
2024-05-09T09:16:08.052Z,36.62
2024-05-09T09:17:16.316Z,38.19
2024-05-09T09:18:18.259Z,37.98
2024-05-09T09:19:22.390Z,37.52
2024-05-09T09:20:35.350Z,37.85
2024-05-09T09:21:38.326Z,36.89
2024-05-09T09:22:40.095Z,37.22
2024-05-09T09:23:42.596Z,36.92
2024-05-09T09:24:44.649Z,36.97
2024-05-09T09:25:46.620Z,36.99
2024-05-09T09:26:48.250Z,36.58
2024-05-09T09:27:50.095Z,36.45
2024-05-09T09:28:51.734Z,36.40
2024-05-09T09:29:55.913Z,36.60
2024-05-09T09:31:05.019Z,36.14
2024-05-09T09:32:07.840Z,37.30
2024-05-09T09:33:10.554Z,38.51
2024-05-09T09:34:12.522Z,38.66
2024-05-09T09:35:14.245Z,39.19
2024-05-09T09:36:17.575Z,37.30
2024-05-09T09:37:27.999Z,36.51
2024-05-09T09:38:31.640Z,37.55
2024-05-09T09:39:35.126Z,38.32
2024-05-09T09:40:44.925Z,39.12
2024-05-09T09:41:53.821Z,39.19
2024-05-09T09:42:57.026Z,37.50
2024-05-09T09:44:01.564Z,37.19
2024-05-09T09:45:05.395Z,37.20
2024-05-09T09:46:10.732Z,36.78
2024-05-09T09:47:16.600Z,36.45
2024-05-09T09:48:20.580Z,37.03
2024-05-09T09:49:26.727Z,37.12
2024-05-09T09:50:34.219Z,38.03
2024-05-09T09:51:42.910Z,37.40
2024-05-09T09:52:45.733Z,37.02
2024-05-09T09:53:51.614Z,36.89
2024-05-09T09:54:54.991Z,37.27
2024-05-09T09:55:58.233Z,37.16
2024-05-09T09:57:02.408Z,37.19
2024-05-09T09:58:04.190Z,37.42
2024-05-09T09:59:06.183Z,37.45
2024-05-09T10:00:11.884Z,37.58
2024-05-09T10:01:16.451Z,37.10
2024-05-09T10:02:18.374Z,37.07
2024-05-09T10:03:20.246Z,36.63
2024-05-09T10:04:23.210Z,36.63
2024-05-09T10:05:25.923Z,36.45
2024-05-09T10:06:30.603Z,37.35
2024-05-09T10:07:35.054Z,37.79
2024-05-09T10:08:37.730Z,37.22
2024-05-09T10:09:39.606Z,37.21
2024-05-09T10:10:46.594Z,37.76
2024-05-09T10:11:52.417Z,38.34
2024-05-09T10:12:59.072Z,37.43
2024-05-09T10:14:01.160Z,38.06
2024-05-09T10:15:08.343Z,38.70
2024-05-09T10:16:10.808Z,37.96
2024-05-09T10:17:12.458Z,38.04
2024-05-09T10:18:14.638Z,37.95
2024-05-09T10:19:24.032Z,37.07
2024-05-09T10:20:30.816Z,36.91
2024-05-09T10:21:46.027Z,37.36
2024-05-09T10:22:49.622Z,37.35
2024-05-09T10:23:57.075Z,37.61
2024-05-09T10:25:06.571Z,38.49
2024-05-09T10:26:08.178Z,37.22
2024-05-09T10:27:09.892Z,36.57
2024-05-09T10:28:11.653Z,36.46
2024-05-09T10:29:16.846Z,36.43
2024-05-09T10:30:29.771Z,36.19
2024-05-09T10:31:44.848Z,37.06
2024-05-09T10:32:46.632Z,36.23
2024-05-09T10:33:51.934Z,36.70
2024-05-09T10:35:21.863Z,36.91
2024-05-09T10:36:28.049Z,37.04
2024-05-09T10:37:30.723Z,36.56
2024-05-09T10:38:33.386Z,35.83
2024-05-09T10:39:36.554Z,35.50
2024-05-09T10:40:39.231Z,35.77
2024-05-09T10:41:40.825Z,35.78
2024-05-09T10:42:42.766Z,36.35
2024-05-09T10:43:44.933Z,37.46
2024-05-09T10:44:46.569Z,36.13
2024-05-09T10:45:48.566Z,35.86
2024-05-09T10:46:50.647Z,35.31
2024-05-09T10:47:52.465Z,35.33
2024-05-09T10:48:57.130Z,34.85
2024-05-09T10:49:58.935Z,35.25
2024-05-09T10:51:00.740Z,34.97
2024-05-09T10:52:03.531Z,34.91
2024-05-09T10:53:05.081Z,34.92
2024-05-09T10:54:06.997Z,35.09
2024-05-09T10:55:08.667Z,34.66
2024-05-09T10:56:13.612Z,34.49
2024-05-09T10:57:15.700Z,33.86
2024-05-09T10:58:17.415Z,34.45
2024-05-09T10:59:19.110Z,34.40
2024-05-09T11:00:27.525Z,34.14
2024-05-09T11:01:37.496Z,34.08
2024-05-09T11:02:39.632Z,34.29
2024-05-09T11:03:46.004Z,34.43
2024-05-09T11:04:48.988Z,33.99
2024-05-09T11:05:55.011Z,34.08
2024-05-09T11:06:59.580Z,34.56
2024-05-09T11:08:02.261Z,34.68
2024-05-09T11:09:05.327Z,35.19
2024-05-09T11:10:12.256Z,35.08
2024-05-09T11:11:14.845Z,35.70
2024-05-09T11:12:16.707Z,36.38
2024-05-09T11:13:31.400Z,36.87
2024-05-09T11:14:33.646Z,35.53
2024-05-09T11:15:42.290Z,35.86
2024-05-09T11:16:43.882Z,35.54
2024-05-09T11:17:45.504Z,34.72
2024-05-09T11:18:55.546Z,34.46
2024-05-09T11:19:57.329Z,34.38
2024-05-09T11:20:58.987Z,33.77
2024-05-09T11:22:03.247Z,33.71
2024-05-09T11:23:06.294Z,33.65
2024-05-09T11:24:11.022Z,34.25
2024-05-09T11:25:13.296Z,34.98
2024-05-09T11:26:18.484Z,35.88
2024-05-09T11:27:21.126Z,34.33
2024-05-09T11:28:23.283Z,33.89
2024-05-09T11:29:38.949Z,34.17
2024-05-09T11:30:40.655Z,34.68
2024-05-09T11:31:46.762Z,34.30
2024-05-09T11:32:49.098Z,33.41
2024-05-09T11:33:53.967Z,33.96
2024-05-09T11:34:55.596Z,34.27
2024-05-09T11:35:57.595Z,34.72
2024-05-09T11:36:59.391Z,34.43
2024-05-09T11:38:00.947Z,33.94
2024-05-09T11:39:02.562Z,34.77
2024-05-09T11:40:07.062Z,34.83
2024-05-09T11:41:19.965Z,34.70
2024-05-09T11:42:21.722Z,35.17
2024-05-09T11:43:23.368Z,34.93
2024-05-09T11:44:26.025Z,34.95
2024-05-09T11:45:27.809Z,34.66
2024-05-09T11:46:29.510Z,35.22
2024-05-09T11:47:31.426Z,34.81
2024-05-09T11:48:33.223Z,34.47
2024-05-09T11:49:35.036Z,34.87
2024-05-09T11:50:36.864Z,34.80
2024-05-09T11:51:38.520Z,35.23
2024-05-09T11:52:42.900Z,36.07
2024-05-09T11:53:44.572Z,36.94
2024-05-09T11:54:46.222Z,37.76
2024-05-09T11:55:47.874Z,36.53
2024-05-09T11:56:50.805Z,35.64
2024-05-09T11:57:52.661Z,34.67
2024-05-09T11:58:54.773Z,34.11
2024-05-09T11:59:56.635Z,33.47
2024-05-09T12:00:58.336Z,33.28
2024-05-09T12:02:00.184Z,32.86
2024-05-09T12:03:03.645Z,32.81
2024-05-09T12:04:05.613Z,32.49
2024-05-09T12:05:07.458Z,32.55
2024-05-09T12:06:09.399Z,32.33
2024-05-09T12:07:13.021Z,32.91
2024-05-09T12:08:14.821Z,32.13
2024-05-09T12:09:17.129Z,32.32
2024-05-09T12:10:22.428Z,33.09
2024-05-09T12:11:27.934Z,33.78
2024-05-09T12:12:29.663Z,32.65
2024-05-09T12:13:31.198Z,31.72
2024-05-09T12:14:32.827Z,31.69
2024-05-09T12:15:35.510Z,32.66
2024-05-09T12:16:37.201Z,31.54
2024-05-09T12:17:38.801Z,31.97
2024-05-09T12:18:40.439Z,32.19
2024-05-09T12:19:42.096Z,31.49
2024-05-09T12:20:43.860Z,32.48
2024-05-09T12:21:45.492Z,31.93
2024-05-09T12:22:47.483Z,31.75
2024-05-09T12:23:49.023Z,31.08
2024-05-09T12:24:50.630Z,32.05
2024-05-09T12:25:52.894Z,32.14
2024-05-09T12:26:54.823Z,31.76
2024-05-09T12:27:56.434Z,31.95
2024-05-09T12:28:57.985Z,32.16
2024-05-09T12:29:59.540Z,32.70
2024-05-09T12:31:01.179Z,33.25
2024-05-09T12:32:03.103Z,33.07
2024-05-09T12:33:05.822Z,33.53
2024-05-09T12:34:07.807Z,33.19
2024-05-09T12:35:09.382Z,33.36
2024-05-09T12:36:10.921Z,33.37
2024-05-09T12:37:13.136Z,33.32
2024-05-09T12:38:15.375Z,33.54
2024-05-09T12:39:17.085Z,33.61
2024-05-09T12:40:26.625Z,33.29
2024-05-09T12:41:38.163Z,32.50
2024-05-09T12:42:39.859Z,32.41
2024-05-09T12:43:41.463Z,32.52
2024-05-09T12:44:43.026Z,32.44
2024-05-09T12:45:45.075Z,31.55
2024-05-09T12:46:46.648Z,31.57
2024-05-09T12:47:48.430Z,31.40
2024-05-09T12:48:50.308Z,31.39
2024-05-09T12:49:52.257Z,32.90
2024-05-09T12:50:56.653Z,31.59
2024-05-09T12:51:58.170Z,31.03
2024-05-09T12:53:00.058Z,31.16
2024-05-09T12:54:01.619Z,30.70
2024-05-09T12:55:03.776Z,30.73
2024-05-09T12:56:07.238Z,30.66
2024-05-09T12:57:10.446Z,30.47
2024-05-09T12:58:13.602Z,29.97
2024-05-09T12:59:15.356Z,29.27
2024-05-09T13:00:23.811Z,28.27
2024-05-09T13:01:30.162Z,27.65
2024-05-09T13:02:31.953Z,28.08
2024-05-09T13:03:33.826Z,28.12
2024-05-09T13:04:35.736Z,28.83
2024-05-09T13:05:37.549Z,29.52
2024-05-09T13:06:39.361Z,28.97
2024-05-09T13:07:41.003Z,29.12
2024-05-09T13:08:42.753Z,29.00
2024-05-09T13:09:44.705Z,28.26
2024-05-09T13:10:47.125Z,28.48
2024-05-09T13:11:48.842Z,28.63
2024-05-09T13:12:50.458Z,28.17
2024-05-09T13:13:52.136Z,28.10
2024-05-09T13:14:53.868Z,28.02
2024-05-09T13:15:55.465Z,28.56
2024-05-09T13:16:57.191Z,28.65
2024-05-09T13:18:02.254Z,28.95
2024-05-09T13:19:05.353Z,28.62
2024-05-09T13:20:11.975Z,28.44
2024-05-09T13:21:19.906Z,28.83
2024-05-09T13:22:21.517Z,28.73
2024-05-09T13:23:23.105Z,28.18
2024-05-09T13:24:24.835Z,28.49
2024-05-09T13:25:26.411Z,28.22
2024-05-09T13:26:28.264Z,27.88
2024-05-09T13:27:29.907Z,28.25
2024-05-09T13:28:32.846Z,29.35
2024-05-09T13:29:34.522Z,31.00
2024-05-09T13:30:40.624Z,31.30
2024-05-09T13:31:43.664Z,31.99
2024-05-09T13:32:45.676Z,31.18
2024-05-09T13:33:47.458Z,30.51
2024-05-09T13:34:49.354Z,29.95
2024-05-09T13:35:51.297Z,29.70
2024-05-09T13:36:53.055Z,29.19
2024-05-09T13:37:55.375Z,28.28
2024-05-09T13:38:58.404Z,28.36